地図

経路データ

SID SEASON NUMBER BASIN SUBBASIN NAME ISO_TIME NATURE LAT LON WMO_WIND WMO_PRES WMO_AGENCY TRACK_TYPE DIST2LAND LANDFALL IFLAG USA_AGENCY USA_ATCF_ID USA_LAT USA_LON USA_RECORD USA_STATUS USA_WIND USA_PRES USA_SSHS USA_R34_NE USA_R34_SE USA_R34_SW USA_R34_NW USA_R50_NE USA_R50_SE USA_R50_SW USA_R50_NW USA_R64_NE USA_R64_SE USA_R64_SW USA_R64_NW USA_POCI USA_ROCI USA_RMW USA_EYE TOKYO_LAT TOKYO_LON TOKYO_GRADE TOKYO_WIND TOKYO_PRES TOKYO_R50_DIR TOKYO_R50_LONG TOKYO_R50_SHORT TOKYO_R30_DIR TOKYO_R30_LONG TOKYO_R30_SHORT TOKYO_LAND CMA_LAT CMA_LON CMA_CAT CMA_WIND CMA_PRES HKO_LAT HKO_LON HKO_CAT HKO_WIND HKO_PRES NEWDELHI_LAT NEWDELHI_LON NEWDELHI_GRADE NEWDELHI_WIND NEWDELHI_PRES NEWDELHI_CI NEWDELHI_DP NEWDELHI_POCI REUNION_LAT REUNION_LON REUNION_TYPE REUNION_WIND REUNION_PRES REUNION_TNUM REUNION_CI REUNION_RMW REUNION_R34_NE REUNION_R34_SE REUNION_R34_SW REUNION_R34_NW REUNION_R50_NE REUNION_R50_SE REUNION_R50_SW REUNION_R50_NW REUNION_R64_NE REUNION_R64_SE REUNION_R64_SW REUNION_R64_NW BOM_LAT BOM_LON BOM_TYPE BOM_WIND BOM_PRES BOM_TNUM BOM_CI BOM_RMW BOM_R34_NE BOM_R34_SE BOM_R34_SW BOM_R34_NW BOM_R50_NE BOM_R50_SE BOM_R50_SW BOM_R50_NW BOM_R64_NE BOM_R64_SE BOM_R64_SW BOM_R64_NW BOM_ROCI BOM_POCI BOM_EYE BOM_POS_METHOD BOM_PRES_METHOD NADI_LAT NADI_LON NADI_CAT NADI_WIND NADI_PRES WELLINGTON_LAT WELLINGTON_LON WELLINGTON_WIND WELLINGTON_PRES DS824_LAT DS824_LON DS824_STAGE DS824_WIND DS824_PRES TD9636_LAT TD9636_LON TD9636_STAGE TD9636_WIND TD9636_PRES TD9635_LAT TD9635_LON TD9635_WIND TD9635_PRES TD9635_ROCI NEUMANN_LAT NEUMANN_LON NEUMANN_CLASS NEUMANN_WIND NEUMANN_PRES MLC_LAT MLC_LON MLC_CLASS MLC_WIND MLC_PRES USA_GUST BOM_GUST BOM_GUST_PER REUNION_GUST REUNION_GUST_PER USA_SEAHGT USA_SEARAD_NE USA_SEARAD_SE USA_SEARAD_SW USA_SEARAD_NW STORM_SPEED STORM_DIR
1894261N13311 1894 41 NA NA NOT_NAMED 1894-09-18 00:00:00 TS 13.1333 -48.7000 35 hurdat_atl main 982 973 O____________O hurdat_atl AL041894 13.4000 -50.5000 TS 35 0 12.6000 -45.1000 TS 35 7 277
1894261N13311 1894 41 NA NA NOT_NAMED 1894-09-18 03:00:00 TS 13.1768 -49.0816 main 973 956 P____________P AL041894 13.3900 -50.7350 TS 37 0 12.7502 -45.7749 TS 35 8 277
1894261N13311 1894 41 NA NA NOT_NAMED 1894-09-18 06:00:00 TS 13.2333 -49.5000 40 hurdat_atl main 956 947 O____________O hurdat_atl AL041894 13.4000 -51.0000 TS 40 0 12.9000 -46.5000 TS 35 9 279
1894261N13311 1894 41 NA NA NOT_NAMED 1894-09-18 09:00:00 TS 13.3116 -49.9800 main 947 932 P____________P AL041894 13.4424 -51.3200 TS 42 0 13.0500 -47.3000 TS 37 10 280
1894261N13311 1894 41 NA NA NOT_NAMED 1894-09-18 12:00:00 TS 13.4000 -50.5000 45 hurdat_atl main 932 919 O____________O hurdat_atl AL041894 13.5000 -51.7000 TS 45 0 13.2000 -48.1000 TS 40 10 280
1894261N13311 1894 41 NA NA NOT_NAMED 1894-09-18 15:00:00 TS 13.4832 -51.0259 main 920 904 P____________P AL041894 13.5500 -52.1350 TS 47 0 13.3496 -48.8076 TS 42 11 279
1894261N13311 1894 41 NA NA NOT_NAMED 1894-09-18 18:00:00 TS 13.5667 -51.5667 50 hurdat_atl main 908 892 O____________O hurdat_atl AL041894 13.6000 -52.6000 TS 50 0 13.5000 -49.5000 TS 45 11 279
1894261N13311 1894 41 NA NA NOT_NAMED 1894-09-18 21:00:00 TS 13.6449 -52.1117 main 892 891 P____________P AL041894 13.6424 -53.0426 TS 52 0 13.6499 -50.2501 TS 47 11 279
1894261N13311 1894 41 NA NA NOT_NAMED 1894-09-19 00:00:00 TS 13.7333 -52.6667 55 hurdat_atl main 889 889 O____________O hurdat_atl AL041894 13.7000 -53.5000 TS 55 0 13.8000 -51.0000 TS 50 11 281
1894261N13311 1894 41 NA NA NOT_NAMED 1894-09-19 03:00:00 TS 13.8499 -53.2283 main 891 865 P____________P AL041894 13.7999 -53.9924 TS 60 0 13.9497 -51.7001 TS 52 11 282
1894261N13311 1894 41 NA NA NOT_NAMED 1894-09-19 06:00:00 TS 13.9667 -53.8000 65 hurdat_atl main 865 811 O____________O hurdat_atl AL041894 13.9000 -54.5000 HU 65 1 14.1000 -52.4000 TS 55 12 280
1894261N13311 1894 41 NA NA NOT_NAMED 1894-09-19 09:00:00 TS 14.0550 -54.3934 main 811 764 P____________P AL041894 13.9575 -55.0151 HU 67 1 14.2499 -53.1501 TS 57 11 278
1894261N13311 1894 41 NA NA NOT_NAMED 1894-09-19 12:00:00 TS 14.1333 -54.9667 70 hurdat_atl main 754 723 O____________O hurdat_atl AL041894 14.0000 -55.5000 HU 70 1 14.4000 -53.9000 TS 60 10 279
1894261N13311 1894 41 NA NA NOT_NAMED 1894-09-19 15:00:00 TS 14.2113 -55.4568 main 714 685 P____________P AL041894 14.0422 -55.8851 HU 75 1 14.5497 -54.6001 TS 60 10 280
1894261N13311 1894 41 NA NA NOT_NAMED 1894-09-19 18:00:00 TS 14.3000 -55.9667 80 hurdat_atl main 676 632 O____________O hurdat_atl AL041894 14.1000 -56.3000 HU 80 1 14.7000 -55.3000 TS 60 11 280
1894261N13311 1894 41 NA NA NOT_NAMED 1894-09-19 21:00:00 TS 14.4117 -56.6017 main 632 592 P____________P AL041894 14.1926 -56.8775 HU 82 1 14.8499 -56.0501 TS 62 13 280
1894261N13311 1894 41 NA NA NOT_NAMED 1894-09-20 00:00:00 TS 14.5333 -57.2667 85 hurdat_atl main 585 557 O____________O hurdat_atl AL041894 14.3000 -57.5000 HU 85 2 15.0000 -56.8000 HU 65 13 281
1894261N13311 1894 41 NA NA NOT_NAMED 1894-09-20 03:00:00 TS 14.6498 -57.8717 main 551 529 P____________P AL041894 14.3998 -58.0576 HU 87 2 15.1496 -57.5001 HU 67 12 281
1894261N13311 1894 41 NA NA NOT_NAMED 1894-09-20 06:00:00 TS 14.7667 -58.4667 90 hurdat_atl main 533 512 O____________O hurdat_atl AL041894 14.5000 -58.6000 HU 90 2 15.3000 -58.2000 HU 70 12 281
1894261N13311 1894 41 NA NA NOT_NAMED 1894-09-20 09:00:00 TS 14.8831 -59.0684 main 513 501 P____________P AL041894 14.5997 -59.1276 HU 92 2 15.4499 -58.9501 HU 72 12 281
1894261N13311 1894 41 NA NA NOT_NAMED 1894-09-20 12:00:00 TS 15.0000 -59.7000 95 hurdat_atl main 501 493 O____________O hurdat_atl AL041894 14.7000 -59.7000 HU 95 2 15.6000 -59.7000 HU 75 13 280
1894261N13311 1894 41 NA CS NOT_NAMED 1894-09-20 15:00:00 TS 15.1064 -60.3752 main 496 494 P____________P AL041894 14.7848 -60.3627 HU 97 3 15.7496 -60.4001 HU 75 14 280
1894261N13311 1894 41 NA CS NOT_NAMED 1894-09-20 18:00:00 TS 15.2333 -61.1000 100 hurdat_atl main 503 503 O____________O hurdat_atl AL041894 14.9000 -61.1000 HU 100 3 15.9000 -61.1000 HU 75 15 281
1894261N13311 1894 41 NA CS NOT_NAMED 1894-09-20 21:00:00 TS 15.3991 -61.8759 main 503 431 P____________P AL041894 15.0775 -61.8925 HU 102 3 16.0423 -61.8427 HU 75 16 284
1894261N13311 1894 41 NA CS NOT_NAMED 1894-09-21 00:00:00 TS 15.6000 -62.6667 105 hurdat_atl main 424 354 O____________O hurdat_atl AL041894 15.3000 -62.7000 HU 105 3 16.2000 -62.6000 HU 75 16 286
1894261N13311 1894 41 NA CS NOT_NAMED 1894-09-21 03:00:00 TS 15.8331 -63.4341 main 354 279 P____________P AL041894 15.5498 -63.4725 HU 105 3 16.3998 -63.3575 HU 75 15 288
1894261N13311 1894 41 NA CS NOT_NAMED 1894-09-21 06:00:00 TS 16.0667 -64.1667 105 hurdat_atl main 272 227 O____________O hurdat_atl AL041894 15.8000 -64.2000 HU 105 3 16.6000 -64.1000 HU 75 14 287
1894261N13311 1894 41 NA CS NOT_NAMED 1894-09-21 09:00:00 TS 16.2547 -64.8511 main 212 181 P____________P AL041894 16.0072 -64.8727 HU 105 3 16.7497 -64.8078 HU 75 13 286
1894261N13311 1894 41 NA CS NOT_NAMED 1894-09-21 12:00:00 TS 16.4333 -65.5000 105 hurdat_atl main 181 145 O____________O hurdat_atl AL041894 16.2000 -65.5000 HU 105 3 16.9000 -65.5000 HU 75 13 287
1894261N13311 1894 41 NA CS NOT_NAMED 1894-09-21 15:00:00 TS 16.6331 -66.1359 main 145 124 P____________P AL041894 16.3998 -66.1076 HU 105 3 17.0997 -66.1925 HU 75 13 288
1894261N13311 1894 41 NA CS NOT_NAMED 1894-09-21 18:00:00 TS 16.8333 -66.7667 105 hurdat_atl main 123 100 O____________O hurdat_atl AL041894 16.6000 -66.7000 HU 105 3 17.3000 -66.9000 HU 75 13 287
1894261N13311 1894 41 NA CS NOT_NAMED 1894-09-21 21:00:00 TS 17.0064 -67.4045 main 102 99 P____________P AL041894 16.7847 -67.2853 HU 102 3 17.4498 -67.6428 HU 75 13 286
1894261N13311 1894 41 NA CS NOT_NAMED 1894-09-22 00:00:00 TS 17.2000 -68.0667 100 hurdat_atl main 123 89 O____________O hurdat_atl AL041894 17.0000 -67.9000 HU 100 3 17.6000 -68.4000 HU 75 14 289
1894261N13311 1894 41 NA CS NOT_NAMED 1894-09-22 03:00:00 TS 17.4513 -68.7585 main 78 70 P____________P AL041894 17.2772 -68.5628 HU 97 3 17.7997 -69.1500 HU 75 15 291
1894261N13311 1894 41 NA CS NOT_NAMED 1894-09-22 06:00:00 TS 17.7333 -69.5000 95 hurdat_atl main 79 22 O____________O hurdat_atl AL041894 17.6000 -69.3000 HU 95 2 18.0000 -69.9000 HU 75 16 291
1894261N13311 1894 41 NA CS NOT_NAMED 1894-09-22 09:00:00 TS 18.0215 -70.3042 main 22 0 P____________P AL041894 17.9574 -70.1274 HU 92 2 18.1498 -70.6578 HU 75 17 290
1894261N13311 1894 41 NA CS NOT_NAMED 1894-09-22 12:00:00 TS 18.3000 -71.1333 90 hurdat_atl main 0 0 O____________O hurdat_atl AL041894 18.3000 -71.0000 HU 90 2 18.3000 -71.4000 HU 75 16 288
1894261N13311 1894 41 NA NA NOT_NAMED 1894-09-22 15:00:00 TS 18.5380 -71.9412 main 0 0 P____________P AL041894 18.5572 -71.8580 HU 82 1 18.4997 -72.1075 HU 65 16 287
1894261N13311 1894 41 NA CS NOT_NAMED 1894-09-22 18:00:00 TS 18.7667 -72.7333 75 hurdat_atl main 15 15 O____________O hurdat_atl AL041894 18.8000 -72.7000 HU 75 1 18.7000 -72.8000 TS 55 16 288
1894261N13311 1894 41 NA CS NOT_NAMED 1894-09-22 21:00:00 TS 19.0188 -73.5076 main 59 56 P____________P AL041894 19.0996 -73.5151 HU 77 1 18.8572 -73.4927 TS 55 15 289
1894261N13311 1894 41 NA CS NOT_NAMED 1894-09-23 00:00:00 TS 19.2667 -74.2667 80 hurdat_atl main 78 44 O____________O hurdat_atl AL041894 19.4000 -74.3000 HU 80 1 19.0000 -74.2000 TS 55 15 288
1894261N13311 1894 41 NA CS NOT_NAMED 1894-09-23 03:00:00 TS 19.4807 -75.0370 main 44 24 P____________P AL041894 19.6498 -75.0803 HU 82 1 19.1424 -74.9502 TS 60 15 287
1894261N13311 1894 41 NA CS NOT_NAMED 1894-09-23 06:00:00 TS 19.7000 -75.7667 85 hurdat_atl main 30 11 O____________O hurdat_atl AL041894 19.9000 -75.8000 HU 85 2 19.3000 -75.7000 HU 65 14 290
1894261N13311 1894 41 NA CS NOT_NAMED 1894-09-23 09:00:00 TS 19.9638 -76.4251 main 0 0 P____________P AL041894 20.2070 -76.4226 HU 77 1 19.4774 -76.4302 HU 67 13 294
1894261N13311 1894 41 NA NA NOT_NAMED 1894-09-23 12:00:00 TS 20.2333 -77.0333 70 hurdat_atl main 0 0 O____________O hurdat_atl AL041894 20.5000 -77.0000 HU 70 1 19.7000 -77.1000 HU 70 12 294
1894261N13311 1894 41 NA CS NOT_NAMED 1894-09-23 15:00:00 TS 20.4664 -77.6270 main 22 10 P____________P AL041894 20.7073 -77.6004 HU 70 1 19.9847 -77.6801 HU 70 12 293
1894261N13311 1894 41 NA CS NOT_NAMED 1894-09-23 18:00:00 TS 20.7000 -78.2000 70 hurdat_atl main 15 11 O____________O hurdat_atl AL041894 20.9000 -78.2000 HU 70 1 20.3000 -78.2000 HU 70 12 295
1894261N13311 1894 41 NA CS NOT_NAMED 1894-09-23 21:00:00 TS 20.9665 -78.7717 main 31 31 P____________P AL041894 21.1498 -78.8000 HU 70 1 20.5998 -78.7152 HU 70 12 297
1894261N13311 1894 41 NA CS NOT_NAMED 1894-09-24 00:00:00 TS 21.2333 -79.3333 70 hurdat_atl main 35 30 O____________O hurdat_atl AL041894 21.4000 -79.4000 HU 70 1 20.9000 -79.2000 HU 70 12 295
1894261N13311 1894 41 NA CS NOT_NAMED 1894-09-24 03:00:00 TS 21.4542 -79.9086 main 24 22 P____________P AL041894 21.5850 -80.0229 HU 70 1 21.1925 -79.6801 HU 70 11 294
1894261N13311 1894 41 NA CS NOT_NAMED 1894-09-24 06:00:00 TS 21.7000 -80.4333 70 hurdat_atl main 24 11 O____________O hurdat_atl AL041894 21.8000 -80.6000 HU 70 1 21.5000 -80.1000 HU 70 11 303
1894261N13311 1894 41 NA CS NOT_NAMED 1894-09-24 09:00:00 TS 22.0474 -80.8907 main 11 0 P____________P AL041894 22.1500 -81.1246 HU 67 1 21.8423 -80.4227 HU 67 10 313
1894261N13311 1894 41 NA NA NOT_NAMED 1894-09-24 12:00:00 TS 22.4000 -81.2333 65 hurdat_atl main 0 0 O____________O hurdat_atl AL041894 22.5000 -81.5000 HU 65 1 22.2000 -80.7000 HU 65 8 321
1894261N13311 1894 41 NA NA NOT_NAMED 1894-09-24 15:00:00 TS 22.6648 -81.4353 main 0 0 P____________P AL041894 22.7148 -81.6529 HU 62 0 22.5649 -81.0001 HU 65 6 328
1894261N13311 1894 41 NA NA NOT_NAMED 1894-09-24 18:00:00 TS 22.9000 -81.5667 60 994 hurdat_atl main 0 0 O____________O hurdat_atl AL041894 22.9000 -81.7000 TS 60 994 0 22.9000 -81.3000 HU 65 994 6 328
1894261N13311 1894 41 NA NA NOT_NAMED 1894-09-24 21:00:00 TS 23.1400 -81.7533 main 0 0 P____________P AL041894 23.1350 -81.8075 TS 62 0 23.1501 -81.6450 HU 72 6 328
1894261N13311 1894 41 NA NA NOT_NAMED 1894-09-25 00:00:00 TS 23.4000 -81.9000 65 hurdat_atl main 33 33 O____________O hurdat_atl AL041894 23.4000 -81.9000 HU 65 1 23.4000 -81.9000 HU 80 6 341
1894261N13311 1894 41 NA NA NOT_NAMED 1894-09-25 03:00:00 TS 23.6936 -81.9563 main 67 67 P____________P AL041894 23.6729 -81.9656 HU 67 1 23.7349 -81.9378 HU 92 6 355
1894261N13311 1894 41 NA NA NOT_NAMED 1894-09-25 06:00:00 TS 24.0333 -81.9667 70 hurdat_atl main 100 100 O____________O hurdat_atl AL041894 24.0000 -82.0000 HU 70 1 24.1000 -81.9000 MH 105 6 358
1894261N13311 1894 41 NA NA NOT_NAMED 1894-09-25 09:00:00 TS 24.3386 -81.9808 main 127 98 P____________P AL041894 24.2979 -82.0037 HU 70 1 24.4200 -81.9351 MH 105 8 359
1894261N13311 1894 41 NA GM NOT_NAMED 1894-09-25 11:00:00 TS 24.6868 -81.9917 70 hurdat_atl main 98 87 O____________P hurdat_atl AL041894 24.7000 -82.0000 L HU 70 1 24.6605 -81.9751 MH 105 12 359
1894261N13311 1894 41 NA GM NOT_NAMED 1894-09-25 12:00:00 TS 24.9333 -82.0000 80 985 hurdat_atl main 87 44 O____________O hurdat_atl AL041894 25.0000 -82.0000 HU 80 985 1 24.8000 -82.0000 MH 105 985 14 358
1894261N13311 1894 41 NA GM NOT_NAMED 1894-09-25 15:00:00 TS 25.5875 -82.0357 main 44 29 P____________P AL041894 25.7175 -82.0000 HU 85 2 25.3275 -82.1072 MH 105 12 357
1894261N13311 1894 41 NA GM NOT_NAMED 1894-09-25 18:00:00 TS 26.1667 -82.0667 90 hurdat_atl main 29 24 O____________O hurdat_atl AL041894 26.3000 -82.0000 HU 90 2 25.9000 -82.2000 MH 105 12 357
1894261N13311 1894 41 NA GM NOT_NAMED 1894-09-25 19:00:00 TS 26.3566 -82.0722 90 hurdat_atl main 14 0 O____________P hurdat_atl AL041894 26.5000 -82.0000 L HU 90 2 26.0697 -82.2167 MH 102 12 4
1894261N13311 1894 41 NA NA NOT_NAMED 1894-09-25 21:00:00 TS 26.7584 -82.0213 main 0 0 P____________P AL041894 26.9377 -81.9169 HU 83 2 26.4000 -82.2300 MH 97 12 10
1894261N13311 1894 41 NA NA NOT_NAMED 1894-09-26 00:00:00 TS 27.3667 -81.8667 75 hurdat_atl main 0 0 O____________O hurdat_atl AL041894 27.6000 -81.7000 HU 75 1 26.9000 -82.2000 HU 90 12 11
1894261N13311 1894 41 NA NA NOT_NAMED 1894-09-26 03:00:00 TS 27.9057 -81.7700 main 0 0 P____________P AL041894 28.1336 -81.5937 HU 67 1 27.4500 -82.1225 HU 80 11 10
1894261N13311 1894 41 NA NA NOT_NAMED 1894-09-26 06:00:00 TS 28.4000 -81.6667 60 hurdat_atl main 0 0 O____________O hurdat_atl AL041894 28.6000 -81.5000 TS 60 0 28.0000 -82.0000 HU 70 10 13
1894261N13311 1894 41 NA NA NOT_NAMED 1894-09-26 09:00:00 TS 28.8742 -81.5216 main 0 0 P____________P AL041894 29.0575 -81.3500 TS 62 0 28.5075 -81.8648 HU 67 10 16
1894261N13311 1894 41 NA NA NOT_NAMED 1894-09-26 12:00:00 TS 29.3333 -81.3667 65 hurdat_atl main 0 0 O____________O hurdat_atl AL041894 29.5000 -81.2000 HU 65 1 29.0000 -81.7000 HU 65 10 16
1894261N13311 1894 41 NA NA NOT_NAMED 1894-09-26 15:00:00 TS 29.8050 -81.2233 main 9 9 P____________P AL041894 29.9575 -81.0849 HU 67 1 29.5000 -81.5000 HU 67 10 14
1894261N13311 1894 41 NA NA NOT_NAMED 1894-09-26 18:00:00 TS 30.2667 -81.1000 70 hurdat_atl main 36 36 O____________O hurdat_atl AL041894 30.4000 -81.0000 HU 70 1 30.0000 -81.3000 HU 70 9 11
1894261N13311 1894 41 NA NA NOT_NAMED 1894-09-26 21:00:00 TS 30.7050 -81.0164 main 38 36 P____________P AL041894 30.8075 -80.9498 HU 72 1 30.4999 -81.1496 HU 72 9 9
1894261N13311 1894 41 NA NA NOT_NAMED 1894-09-27 00:00:00 TS 31.1333 -80.9333 75 hurdat_atl main 44 37 O____________O hurdat_atl AL041894 31.2000 -80.9000 HU 75 1 31.0000 -81.0000 HU 75 8 14
1894261N13311 1894 41 NA NA NOT_NAMED 1894-09-27 03:00:00 TS 31.4767 -80.7860 main 39 14 P____________P AL041894 31.4650 -80.7791 HU 77 1 31.5000 -80.8000 HU 77 9 15
1894261N13311 1894 41 NA NA NOT_NAMED 1894-09-27 06:00:00 TS 32.0000 -80.6667 80 hurdat_atl main 14 0 O____________O hurdat_atl AL041894 32.0000 -80.7000 HU 80 1 32.0000 -80.6000 HU 80 12 8
1894261N13311 1894 41 NA NA NOT_NAMED 1894-09-27 07:00:00 TS 32.2581 -80.6532 80 hurdat_atl main 9 0 O____________P hurdat_atl AL041894 32.3000 -80.7000 L HU 80 1 32.1744 -80.5596 HU 78 13 7
1894261N13311 1894 41 NA NA NOT_NAMED 1894-09-27 09:00:00 TS 32.6396 -80.5703 main 0 0 P____________P AL041894 32.6984 -80.6120 HU 75 1 32.5222 -80.4867 HU 75 10 22
1894261N13311 1894 41 NA NA NOT_NAMED 1894-09-27 12:00:00 TS 33.0000 -80.3000 70 hurdat_atl main 0 0 O____________O hurdat_atl AL041894 33.0000 -80.3000 HU 70 1 33.0000 -80.3000 HU 70 9 37
1894261N13311 1894 41 NA NA NOT_NAMED 1894-09-27 15:00:00 TS 33.3948 -79.8885 main 0 0 P____________P AL041894 33.3909 -79.8850 HU 67 1 33.4027 -79.8955 HU 67 10 47
1894261N13311 1894 41 NA NA NOT_NAMED 1894-09-27 18:00:00 TS 33.7000 -79.4000 65 hurdat_atl main 0 0 O____________O hurdat_atl AL041894 33.7000 -79.4000 HU 65 1 33.7000 -79.4000 HU 65 9 59
1894261N13311 1894 41 NA NA NOT_NAMED 1894-09-27 21:00:00 TS 33.8723 -78.9493 main 0 0 P____________P AL041894 33.8723 -78.9493 HU 62 0 33.8723 -78.9493 HU 62 8 68
1894261N13311 1894 41 NA NA NOT_NAMED 1894-09-28 00:00:00 TS 34.0000 -78.5000 60 hurdat_atl main 0 0 O____________O hurdat_atl AL041894 34.0000 -78.5000 TS 60 0 34.0000 -78.5000 TS 60 8 66
1894261N13311 1894 41 NA NA NOT_NAMED 1894-09-28 03:00:00 TS 34.1998 -78.0500 main 0 0 P____________P AL041894 34.1998 -78.0500 TS 60 0 34.1998 -78.0500 TS 60 8 62
1894261N13311 1894 41 NA NA NOT_NAMED 1894-09-28 06:00:00 TS 34.4000 -77.6000 60 hurdat_atl main 0 0 O____________O hurdat_atl AL041894 34.4000 -77.6000 TS 60 0 34.4000 -77.6000 TS 60 8 66
1894261N13311 1894 41 NA NA NOT_NAMED 1894-09-28 09:00:00 TS 34.5427 -77.1123 main 21 0 P____________P AL041894 34.5427 -77.1123 TS 60 0 34.5427 -77.1123 TS 60 8 68
1894261N13311 1894 41 NA NA NOT_NAMED 1894-09-28 12:00:00 TS 34.7000 -76.7000 60 hurdat_atl main 0 0 O____________O hurdat_atl AL041894 34.7000 -76.7000 L TS 60 0 34.7000 -76.7000 TS 60 7 54
1894261N13311 1894 41 NA NA NOT_NAMED 1894-09-28 15:00:00 TS 34.9272 -76.4696 main 0 0 P____________P AL041894 34.9272 -76.4696 TS 60 0 34.9272 -76.4696 TS 60 6 33
1894261N13311 1894 41 NA NA NOT_NAMED 1894-09-28 18:00:00 TS 35.2000 -76.3000 60 hurdat_atl main 14 0 O____________O hurdat_atl AL041894 35.2000 -76.3000 TS 60 0 35.2000 -76.3000 TS 60 7 32
1894261N13311 1894 41 NA NA NOT_NAMED 1894-09-28 21:00:00 TS 35.4850 -76.0500 main 0 0 P____________P AL041894 35.4850 -76.0500 TS 60 0 35.4850 -76.0500 TS 60 7 34
1894261N13311 1894 41 NA NA NOT_NAMED 1894-09-29 00:00:00 TS 35.8000 -75.8000 60 hurdat_atl main 0 0 O____________O hurdat_atl AL041894 35.8000 -75.8000 TS 60 0 35.8000 -75.8000 TS 60 8 29
1894261N13311 1894 41 NA NA NOT_NAMED 1894-09-29 03:00:00 TS 36.1574 -75.5924 main 8 8 P____________P AL041894 36.1574 -75.5924 TS 65 1 36.1574 -75.5924 TS 65 8 25
1894261N13311 1894 41 NA NA NOT_NAMED 1894-09-29 06:00:00 TS 36.5000 -75.4000 70 hurdat_atl main 37 37 O____________O hurdat_atl AL041894 36.5000 -75.4000 HU 70 1 36.5000 -75.4000 HU 70 7 27
1894261N13311 1894 41 NA NA NOT_NAMED 1894-09-29 09:00:00 TS 36.7649 -75.2072 main 66 66 P____________P AL041894 36.7649 -75.2072 HU 72 1 36.7649 -75.2072 HU 72 6 33
1894261N13311 1894 41 NA NA NOT_NAMED 1894-09-29 12:00:00 TS 37.0000 -75.0000 75 hurdat_atl main 80 80 O____________O hurdat_atl AL041894 37.0000 -75.0000 HU 75 1 37.0000 -75.0000 HU 75 6 38
1894261N13311 1894 41 NA NA NOT_NAMED 1894-09-29 15:00:00 TS 37.2199 -74.7645 main 86 86 P____________P AL041894 37.2199 -74.7645 HU 72 1 37.2199 -74.7645 HU 72 6 39
1894261N13311 1894 41 NA NA NOT_NAMED 1894-09-29 18:00:00 TS 37.5000 -74.5000 70 hurdat_atl main 93 89 O____________O hurdat_atl AL041894 37.5000 -74.5000 HU 70 1 37.5000 -74.5000 HU 70 976 8 32
1894261N13311 1894 41 NA NA NOT_NAMED 1894-09-29 21:00:00 TS 37.9274 -74.2150 main 90 85 P____________P AL041894 37.9274 -74.2150 HU 67 1 37.9274 -74.2150 HU 67 10 28
1894261N13311 1894 41 NA NA NOT_NAMED 1894-09-30 00:00:00 TS 38.4000 -73.9000 65 hurdat_atl main 102 95 O____________O hurdat_atl AL041894 38.4000 -73.9000 HU 65 1 38.4000 -73.9000 HU 65 10 30
1894261N13311 1894 41 NA NA NOT_NAMED 1894-09-30 03:00:00 TS 38.8300 -73.5575 main 98 95 P____________P AL041894 38.8300 -73.5575 HU 57 0 38.8300 -73.5575 HU 57 10 34
1894261N13311 1894 41 NA NA NOT_NAMED 1894-09-30 06:00:00 TS 39.2000 -73.2000 50 hurdat_atl main 100 100 O____________O hurdat_atl AL041894 39.2000 -73.2000 TS 50 0 39.2000 -73.2000 TS 50 8 40
1894261N13311 1894 41 NA NA NOT_NAMED 1894-09-30 09:00:00 TS 39.4722 -72.8717 main 113 113 P____________P AL041894 39.4722 -72.8717 TS 45 0 39.4722 -72.8717 TS 45 7 47
1894261N13311 1894 41 NA NA NOT_NAMED 1894-09-30 12:00:00 TS 39.7000 -72.5000 40 hurdat_atl main 122 105 O____________O hurdat_atl AL041894 39.7000 -72.5000 TS 40 0 39.7000 -72.5000 TS 40 8 53
1894261N13311 1894 41 NA NA NOT_NAMED 1894-09-30 15:00:00 TS 39.9495 -72.0594 main 108 102 P____________P AL041894 39.9495 -72.0594 TS 37 0 39.9495 -72.0594 TS 37 9 57
1894261N13311 1894 41 NA NA NOT_NAMED 1894-09-30 18:00:00 MX 40.2000 -71.5000 35 hurdat_atl main 114 114 O____________O hurdat_atl AL041894 40.2000 -71.5000 TS 35 0 40.2000 -71.5000 EX 35 10 62
1894261N13311 1894 41 NA NA NOT_NAMED 1894-09-30 21:00:00 MX 40.4486 -70.8540 main 122 98 P____________P AL041894 40.4486 -70.8540 TS 35 0 40.4486 -70.8540 EX 35 12 66
1894261N13311 1894 41 NA NA NOT_NAMED 1894-10-01 00:00:00 MX 40.7000 -70.0000 35 hurdat_atl main 105 98 O____________O hurdat_atl AL041894 40.7000 -70.0000 TS 35 0 40.7000 -70.0000 EX 35 16 69
1894261N13311 1894 41 NA NA NOT_NAMED 1894-10-01 03:00:00 MX 41.0467 -68.8479 main 126 120 P____________P AL041894 40.9537 -68.8798 TS 35 0 41.1396 -68.8159 EX 35 19 75
1894261N13311 1894 41 NA NA NOT_NAMED 1894-10-01 06:00:00 MX 41.2000 -67.6000 35 hurdat_atl main 206 206 O____________O hurdat_atl AL041894 41.2000 -67.6000 TS 35 0 41.2000 -67.6000 EX 35 17 119
1894261N13311 1894 41 NA NA NOT_NAMED 1894-10-01 09:00:00 ET 40.1950 -66.8428 main 315 315 _____________P AL041894 TS -1 40.1950 -66.8428 EX 35 23 149
1894261N13311 1894 41 NA NA NOT_NAMED 1894-10-01 12:00:00 ET 39.2000 -66.0000 main 437 437 _____________O 39.2000 -66.0000 EX 35 20 117
1894261N13311 1894 41 NA NA NOT_NAMED 1894-10-01 15:00:00 ET 39.2742 -64.5045 main 471 460 _____________P 39.2742 -64.5045 EX 37 24 78
1894261N13311 1894 41 NA NA NOT_NAMED 1894-10-01 18:00:00 ET 39.7000 -62.9000 main 467 467 _____________O 39.7000 -62.9000 EX 40 22 74
1894261N13311 1894 41 NA NA NOT_NAMED 1894-10-01 21:00:00 ET 39.8959 -61.7603 main 494 494 _____________P 39.8959 -61.7603 EX 40 17 77
1894261N13311 1894 41 NA NA NOT_NAMED 1894-10-02 00:00:00 ET 40.1000 -60.7000 main 532 532 _____________O 40.1000 -60.7000 EX 40 18 76
1894261N13311 1894 41 NA NA NOT_NAMED 1894-10-02 03:00:00 ET 40.3495 -59.4301 main 560 550 _____________P 40.3495 -59.4301 EX 40 20 76
1894261N13311 1894 41 NA NA NOT_NAMED 1894-10-02 06:00:00 ET 40.6000 -58.1000 main 566 566 _____________O 40.6000 -58.1000 EX 40 20 81
1894261N13311 1894 41 NA NA NOT_NAMED 1894-10-02 09:00:00 ET 40.6782 -56.8055 main 609 609 _____________P 40.6782 -56.8055 EX 42 20 79
1894261N13311 1894 41 NA NA NOT_NAMED 1894-10-02 12:00:00 ET 41.0000 -55.5000 main 640 524 _____________O 41.0000 -55.5000 EX 45 24 59
1894261N13311 1894 41 NA NA NOT_NAMED 1894-10-02 15:00:00 ET 41.9219 -54.1116 main 523 401 _____________P 41.9219 -54.1116 EX 45 30 45
1894261N13311 1894 41 NA NA NOT_NAMED 1894-10-02 18:00:00 ET 43.1000 -52.7000 main 390 314 _____________O 43.1000 -52.7000 EX 45 28 42
1894261N13311 1894 41 NA NA NOT_NAMED 1894-10-02 21:00:00 ET 44.0259 -51.5343 main 317 283 _____________P 44.0259 -51.5343 EX 45 29 43
1894261N13311 1894 41 NA NA NOT_NAMED 1894-10-03 00:00:00 ET 45.2000 -50.0000 main 291 290 _____________O 45.2000 -50.0000 EX 45 41 46
1894261N13311 1894 41 NA NA NOT_NAMED 1894-10-03 03:00:00 ET 46.8931 -47.3256 main 404 404 _____________P 46.8931 -47.3256 EX 45 53 47
1894261N13311 1894 41 NA NA NOT_NAMED 1894-10-03 06:00:00 ET 48.8000 -44.3000 main 628 628 _____________O 48.8000 -44.3000 EX 45 55 44
1894261N13311 1894 41 NA NA NOT_NAMED 1894-10-03 09:00:00 ET 50.8452 -41.5875 main 854 854 _____________P 50.8452 -41.5875 EX 45 48 39
1894261N13311 1894 41 NA NA NOT_NAMED 1894-10-03 12:00:00 ET 52.5000 -39.5000 main 870 811 _____________O 52.5000 -39.5000 EX 45 978 30 38
1894261N13311 1894 41 NA NA NOT_NAMED 1894-10-03 15:00:00 ET 53.1925 -38.5872 main 811 786 _____________P 53.1925 -38.5872 EX 45 12 36
1894261N13311 1894 41 NA NA NOT_NAMED 1894-10-03 18:00:00 ET 53.5000 -38.3000 main 786 746 _____________O 53.5000 -38.3000 EX 45 9 32
1894261N13311 1894 41 NA NA NOT_NAMED 1894-10-03 21:00:00 ET 53.9996 -37.7409 main 748 712 _____________P 53.9996 -37.7409 EX 45 12 33
1894261N13311 1894 41 NA NA NOT_NAMED 1894-10-04 00:00:00 ET 54.5000 -37.2000 main 712 679 _____________O 54.5000 -37.2000 EX 45 12 32
1894261N13311 1894 41 NA NA NOT_NAMED 1894-10-04 03:00:00 ET 54.9997 -36.6486 main 683 654 _____________P 54.9997 -36.6486 EX 45 12 32
1894261N13311 1894 41 NA NA NOT_NAMED 1894-10-04 06:00:00 ET 55.5000 -36.1000 main 654 630 _____________O 55.5000 -36.1000 EX 45 12 32
1894261N13311 1894 41 NA NA NOT_NAMED 1894-10-04 09:00:00 ET 56.0005 -35.5529 main 630 614 _____________P 56.0005 -35.5529 EX 45 12 32
1894261N13311 1894 41 NA NA NOT_NAMED 1894-10-04 12:00:00 ET 56.5000 -35.0000 main 615 _____________O 56.5000 -35.0000 EX 45 978 12 31

IBTrACS Databaseについて

本データベースは、米国NOAAが公開する1842年以降の世界の熱帯低気圧のベストトラックデータアーカイブInternational Best Track Archive for Climate Stewardship (IBTrACS)を、ウェブで閲覧しやすい形式に変換したものです。

最終更新日:2021-10-25